TRA65J EHRD-LPMA
Flight info
| Callsign | TRA65J |
|---|---|
| Flight time | N/A |
| Altitude | 36000 |
| Route | SOMEL2A ABNED L980 LOGAN DCT SAM/N0441F350 M195 LORKU DCT EBOMO DCT COQUE DCT KORUL/N0446F370 DCT DEMOS DCT IBIDO DCT MARUM DCT RAKUN RAKUN1P |
| Aircraft | B738/M-SDE2E3FGHIRWXY/LB1 |
Departure
| Time | 2026-05-05 18:05 |
|---|---|
| Airport | Rotterdam The Hague Airport (EHRD) |
Arrival
| Time | N/A |
|---|---|
| Airport | Cristiano Ronaldo International Airport (LPMA) |
| Time | Latitude | Longitude | Altitude | Speed | Heading |
|---|---|---|---|---|---|
| 2026-05-05 17:48 | 51.95142 | 4.43293 | 0 ft | 0 kts | 327° |
| 2026-05-05 18:00 | 51.95143 | 4.43292 | 0 ft | 0 kts | 327° |
| 2026-05-05 18:01 | 51.95157 | 4.43277 | 0 ft | 6 kts | 326° |
| 2026-05-05 18:01 | 51.95164 | 4.43207 | 1 ft | 9 kts | 246° |
| 2026-05-05 18:01 | 51.95121 | 4.43064 | 0 ft | 17 kts | 245° |
| 2026-05-05 18:01 | 51.95113 | 4.43030 | 0 ft | 1 kts | 251° |
| 2026-05-05 18:03 | 51.95111 | 4.43025 | 0 ft | 1 kts | 252° |
| 2026-05-05 18:03 | 51.95113 | 4.42972 | 0 ft | 8 kts | 290° |
| 2026-05-05 18:03 | 51.95156 | 4.42903 | 0 ft | 9 kts | 325° |
| 2026-05-05 18:04 | 51.95205 | 4.42848 | 1 ft | 8 kts | 326° |
| 2026-05-05 18:04 | 51.95236 | 4.42870 | 1 ft | 4 kts | 59° |
| 2026-05-05 18:04 | 51.95245 | 4.42894 | 1 ft | 17 kts | 58° |
| 2026-05-05 18:05 | 51.95447 | 4.43416 | -1 ft | 92 kts | 57° |
| 2026-05-05 18:05 | 51.95914 | 4.44579 | 27 ft | 149 kts | 55° |
| 2026-05-05 18:05 | 51.96433 | 4.45973 | 900 ft | 138 kts | 56° |
| 2026-05-05 18:05 | 51.96953 | 4.47426 | 1440 ft | 159 kts | 57° |
| 2026-05-05 18:06 | 51.97505 | 4.48994 | 2158 ft | 169 kts | 58° |
| 2026-05-05 18:06 | 51.97904 | 4.50175 | 2498 ft | 184 kts | 57° |
| 2026-05-05 18:06 | 51.99286 | 4.51957 | 2936 ft | 205 kts | 18° |
| 2026-05-05 18:06 | 52.00732 | 4.52116 | 2988 ft | 216 kts | 353° |
| 2026-05-05 18:07 | 52.02147 | 4.51191 | 3080 ft | 226 kts | 328° |
| 2026-05-05 18:07 | 52.03194 | 4.49242 | 3712 ft | 235 kts | 300° |
| 2026-05-05 18:07 | 52.03582 | 4.46645 | 4527 ft | 242 kts | 271° |
| 2026-05-05 18:07 | 52.03124 | 4.43990 | 4841 ft | 252 kts | 238° |
| 2026-05-05 18:08 | 52.01836 | 4.42045 | 4869 ft | 256 kts | 211° |
| 2026-05-05 18:08 | 52.00333 | 4.40547 | 4884 ft | 254 kts | 213° |
| 2026-05-05 18:08 | 51.98868 | 4.38956 | 4884 ft | 253 kts | 215° |
| 2026-05-05 18:08 | 51.97422 | 4.37321 | 4901 ft | 251 kts | 216° |
| 2026-05-05 18:09 | 51.96276 | 4.35301 | 4880 ft | 248 kts | 250° |
| 2026-05-05 18:09 | 51.95935 | 4.32474 | 4907 ft | 267 kts | 265° |
| 2026-05-05 18:09 | 51.95727 | 4.29440 | 4893 ft | 274 kts | 265° |
| 2026-05-05 18:09 | 51.95503 | 4.26340 | 4890 ft | 278 kts | 265° |
| 2026-05-05 18:10 | 51.95266 | 4.23240 | 4882 ft | 276 kts | 264° |
| 2026-05-05 18:10 | 51.95016 | 4.20151 | 4877 ft | 277 kts | 264° |
| 2026-05-05 18:10 | 51.94759 | 4.17065 | 4877 ft | 276 kts | 264° |
| 2026-05-05 18:10 | 51.94498 | 4.13990 | 4885 ft | 275 kts | 264° |
| 2026-05-05 18:11 | 51.94235 | 4.10922 | 4891 ft | 274 kts | 264° |
| 2026-05-05 18:11 | 51.93968 | 4.07867 | 4899 ft | 274 kts | 262° |
| 2026-05-05 18:11 | 51.93681 | 4.04854 | 4895 ft | 275 kts | 262° |
| 2026-05-05 18:11 | 51.93382 | 4.01790 | 4898 ft | 275 kts | 262° |
| 2026-05-05 18:12 | 51.93081 | 3.98717 | 4884 ft | 277 kts | 263° |
| 2026-05-05 18:12 | 51.92777 | 3.95625 | 4892 ft | 278 kts | 263° |
| 2026-05-05 18:12 | 51.92477 | 3.92554 | 4899 ft | 275 kts | 263° |
| 2026-05-05 18:12 | 51.92177 | 3.89497 | 5134 ft | 276 kts | 263° |
| 2026-05-05 18:13 | 51.91877 | 3.86438 | 6033 ft | 274 kts | 262° |
| 2026-05-05 18:13 | 51.91576 | 3.83381 | 6945 ft | 275 kts | 262° |
| 2026-05-05 18:13 | 51.91272 | 3.80291 | 7716 ft | 280 kts | 262° |
| 2026-05-05 18:13 | 51.90964 | 3.77152 | 8531 ft | 284 kts | 262° |
| 2026-05-05 18:14 | 51.90650 | 3.73971 | 9347 ft | 288 kts | 262° |
| 2026-05-05 18:14 | 51.90332 | 3.70751 | 10132 ft | 291 kts | 261° |
| 2026-05-05 18:14 | 51.90000 | 3.67406 | 10466 ft | 313 kts | 262° |
| 2026-05-05 18:14 | 51.89641 | 3.63798 | 10661 ft | 336 kts | 261° |
| 2026-05-05 18:15 | 51.89257 | 3.59967 | 11065 ft | 351 kts | 262° |
| 2026-05-05 18:15 | 51.88862 | 3.56040 | 11762 ft | 355 kts | 261° |
| 2026-05-05 18:15 | 51.88461 | 3.52075 | 12514 ft | 359 kts | 261° |
| 2026-05-05 18:15 | 51.88057 | 3.48076 | 13269 ft | 362 kts | 261° |
| 2026-05-05 18:16 | 51.87647 | 3.44034 | 13966 ft | 366 kts | 261° |
| 2026-05-05 18:16 | 51.87231 | 3.39952 | 14617 ft | 370 kts | 261° |
| 2026-05-05 18:16 | 51.86811 | 3.35833 | 15342 ft | 371 kts | 260° |
| 2026-05-05 18:16 | 51.86387 | 3.31683 | 15965 ft | 376 kts | 260° |
| 2026-05-05 18:17 | 51.85958 | 3.27491 | 16603 ft | 380 kts | 260° |